Inicio METAR Ruta Wind Satelite

Informe Meteorológico

Fecha: 2020/09/22 22:28:23 Local
2020.09.23 03:28 UTC


Estado: VENCIDO
Operación:VFR
Pasto / Antonio Narin, Colombia (SKPS) 01-25N 077-16W
2020.09.22 1800 UTC
Wind: from the ESE (110 degrees) at 17 MPH (15 KT):0
Visibility: greater than 7 mile(s):0
Sky conditions: partly cloudy
Temperature: 82 F (28 C)
Dew Point: 44 F (7 C)
Relative Humidity: 26%
Pressure (altimeter): 30.07 in. Hg (1018 hPa)
ob: SKPS 221800Z 11015KT 9999 FEW028 SCT200 28/07 A3007
cycle: 18

SKPS 221700Z 09015G34KT 9999 FEW028 SCT200 27/07 A3010
SKPS 221600Z 33006KT 9999 FEW028 SCT200 23/10 A3014
SKPS 221500Z 00000KT 9999 FEW028 SCT200 22/11 A3016
SKPS 221400Z 00000KT 9999 FEW028 20/10 A3020
SKPS 221300Z 00000KT 9999 FEW028 18/09 A3020